sensor_id;sensor_type;location;lat;lon;timestamp;pressure;altitude;pressure_sealevel;temperature;humidity
34177;BME280;20450;49.074;9.158;2022-11-11T00:02:42;101252.31;;;7.32;82.98
34177;BME280;20450;49.074;9.158;2022-11-11T00:05:28;101258.16;;;7.28;83.32
34177;BME280;20450;49.074;9.158;2022-11-11T00:08:14;101263.22;;;7.31;83.70
34177;BME280;20450;49.074;9.158;2022-11-11T00:11:01;101253.88;;;7.17;84.89
34177;BME280;20450;49.074;9.158;2022-11-11T00:13:49;101252.66;;;7.12;85.55
34177;BME280;20450;49.074;9.158;2022-11-11T00:16:35;101249.25;;;7.10;85.06
34177;BME280;20450;49.074;9.158;2022-11-11T00:19:21;101253.56;;;7.03;83.60
34177;BME280;20450;49.074;9.158;2022-11-11T00:22:14;101245.06;;;7.07;83.90
34177;BME280;20450;49.074;9.158;2022-11-11T00:25:05;101246.50;;;7.02;83.38
34177;BME280;20450;49.074;9.158;2022-11-11T00:27:51;101249.88;;;7.04;83.32
34177;BME280;20450;49.074;9.158;2022-11-11T00:30:39;101265.38;;;7.10;82.44
34177;BME280;20450;49.074;9.158;2022-11-11T00:33:25;101260.56;;;7.13;82.30
34177;BME280;20450;49.074;9.158;2022-11-11T00:36:10;101264.78;;;7.16;82.49
34177;BME280;20450;49.074;9.158;2022-11-11T00:38:56;101265.00;;;7.22;82.57
34177;BME280;20450;49.074;9.158;2022-11-11T00:41:42;101280.81;;;7.25;82.79
34177;BME280;20450;49.074;9.158;2022-11-11T00:44:28;101281.84;;;7.24;82.66
34177;BME280;20450;49.074;9.158;2022-11-11T00:47:15;101283.56;;;7.16;82.22
34177;BME280;20450;49.074;9.158;2022-11-11T00:50:01;101283.56;;;6.98;81.64
34177;BME280;20450;49.074;9.158;2022-11-11T00:52:48;101286.25;;;6.81;82.00
34177;BME280;20450;49.074;9.158;2022-11-11T00:55:34;101277.00;;;6.39;83.73
34177;BME280;20450;49.074;9.158;2022-11-11T00:58:20;101269.50;;;6.42;84.08
34177;BME280;20450;49.074;9.158;2022-11-11T01:01:05;101266.53;;;6.45;83.01
34177;BME280;20450;49.074;9.158;2022-11-11T01:03:53;101269.91;;;6.47;82.84
34177;BME280;20450;49.074;9.158;2022-11-11T01:06:38;101262.31;;;6.43;82.73
34177;BME280;20450;49.074;9.158;2022-11-11T01:09:24;101260.88;;;6.48;83.40
34177;BME280;20450;49.074;9.158;2022-11-11T01:12:09;101276.53;;;6.53;84.01
34177;BME280;20450;49.074;9.158;2022-11-11T01:14:55;101274.50;;;6.55;84.31
34177;BME280;20450;49.074;9.158;2022-11-11T01:17:40;101276.53;;;6.53;85.76
34177;BME280;20450;49.074;9.158;2022-11-11T01:20:27;101284.13;;;6.57;85.37
34177;BME280;20450;49.074;9.158;2022-11-11T01:23:13;101289.72;;;6.64;85.81
34177;BME280;20450;49.074;9.158;2022-11-11T01:26:03;101292.66;;;6.70;85.13
34177;BME280;20450;49.074;9.158;2022-11-11T01:28:52;101295.06;;;6.73;84.57
34177;BME280;20450;49.074;9.158;2022-11-11T01:31:39;101289.53;;;6.75;83.29
34177;BME280;20450;49.074;9.158;2022-11-11T01:34:25;101282.31;;;6.75;83.95
34177;BME280;20450;49.074;9.158;2022-11-11T01:37:13;101273.09;;;6.60;83.45
34177;BME280;20450;49.074;9.158;2022-11-11T01:39:59;101275.22;;;6.57;84.12
34177;BME280;20450;49.074;9.158;2022-11-11T01:42:46;101273.09;;;6.60;84.10
34177;BME280;20450;49.074;9.158;2022-11-11T01:45:48;101276.44;;;6.62;83.64
34177;BME280;20450;49.074;9.158;2022-11-11T01:48:42;101279.13;;;6.62;83.71
34177;BME280;20450;49.074;9.158;2022-11-11T01:51:35;101286.28;;;6.71;83.96
34177;BME280;20450;49.074;9.158;2022-11-11T01:54:27;101283.41;;;6.82;84.70
34177;BME280;20450;49.074;9.158;2022-11-11T01:57:22;101289.84;;;6.89;86.08
34177;BME280;20450;49.074;9.158;2022-11-11T02:00:14;101299.63;;;6.90;84.97
34177;BME280;20450;49.074;9.158;2022-11-11T02:03:04;101303.53;;;6.96;85.90
34177;BME280;20450;49.074;9.158;2022-11-11T02:05:54;101298.88;;;6.98;85.22
34177;BME280;20450;49.074;9.158;2022-11-11T02:08:41;101306.38;;;6.94;85.58
34177;BME280;20450;49.074;9.158;2022-11-11T02:11:30;101304.53;;;6.95;85.89
34177;BME280;20450;49.074;9.158;2022-11-11T02:14:17;101304.53;;;6.95;86.51
34177;BME280;20450;49.074;9.158;2022-11-11T02:17:06;101299.31;;;6.93;85.86
34177;BME280;20450;49.074;9.158;2022-11-11T02:19:57;101290.88;;;6.88;84.99
34177;BME280;20450;49.074;9.158;2022-11-11T02:22:48;101290.47;;;6.83;84.36
34177;BME280;20450;49.074;9.158;2022-11-11T02:25:39;101296.44;;;6.77;83.29
34177;BME280;20450;49.074;9.158;2022-11-11T02:28:31;101285.66;;;6.60;83.05
34177;BME280;20450;49.074;9.158;2022-11-11T02:31:18;101283.22;;;6.39;83.07
34177;BME280;20450;49.074;9.158;2022-11-11T02:34:04;101289.66;;;6.19;83.38
34177;BME280;20450;49.074;9.158;2022-11-11T02:36:51;101283.53;;;5.90;84.87
34177;BME280;20450;49.074;9.158;2022-11-11T02:39:41;101276.78;;;5.86;86.13
34177;BME280;20450;49.074;9.158;2022-11-11T02:42:49;101279.19;;;5.89;86.72
34177;BME280;20450;49.074;9.158;2022-11-11T02:45:35;101276.75;;;5.95;87.60
34177;BME280;20450;49.074;9.158;2022-11-11T02:48:22;101282.53;;;6.00;87.85
34177;BME280;20450;49.074;9.158;2022-11-11T02:51:09;101281.78;;;6.08;88.26
34177;BME280;20450;49.074;9.158;2022-11-11T02:53:55;101276.09;;;6.21;88.90
34177;BME280;20450;49.074;9.158;2022-11-11T02:56:41;101279.44;;;6.32;88.05
34177;BME280;20450;49.074;9.158;2022-11-11T02:59:28;101270.06;;;6.46;88.11
34177;BME280;20450;49.074;9.158;2022-11-11T03:02:14;101270.59;;;6.49;88.27
34177;BME280;20450;49.074;9.158;2022-11-11T03:05:00;101269.47;;;6.52;87.54
34177;BME280;20450;49.074;9.158;2022-11-11T03:07:46;101267.91;;;6.49;87.56
34177;BME280;20450;49.074;9.158;2022-11-11T03:10:32;101269.47;;;6.52;87.44
34177;BME280;20450;49.074;9.158;2022-11-11T03:13:17;101271.81;;;6.55;86.68
34177;BME280;20450;49.074;9.158;2022-11-11T03:16:05;101268.38;;;6.62;87.39
34177;BME280;20450;49.074;9.158;2022-11-11T03:18:51;101266.81;;;6.69;86.28
34177;BME280;20450;49.074;9.158;2022-11-11T03:21:37;101259.75;;;6.68;85.44
34177;BME280;20450;49.074;9.158;2022-11-11T03:24:43;101267.78;;;6.68;85.12
34177;BME280;20450;49.074;9.158;2022-11-11T03:27:29;101266.81;;;6.69;85.72
34177;BME280;20450;49.074;9.158;2022-11-11T03:30:15;101273.56;;;6.73;85.93
34177;BME280;20450;49.074;9.158;2022-11-11T03:33:02;101281.03;;;6.79;86.20
34177;BME280;20450;49.074;9.158;2022-11-11T03:35:48;101303.22;;;6.81;85.35
34177;BME280;20450;49.074;9.158;2022-11-11T03:38:34;101301.81;;;6.77;84.76
34177;BME280;20450;49.074;9.158;2022-11-11T03:41:19;101298.03;;;6.70;83.97
34177;BME280;20450;49.074;9.158;2022-11-11T03:44:05;101297.09;;;6.62;83.96
34177;BME280;20450;49.074;9.158;2022-11-11T03:46:50;101307.28;;;6.58;84.25
34177;BME280;20450;49.074;9.158;2022-11-11T03:49:37;101303.59;;;6.32;84.29
34177;BME280;20450;49.074;9.158;2022-11-11T03:52:23;101300.50;;;6.27;84.63
34177;BME280;20450;49.074;9.158;2022-11-11T03:55:09;101317.59;;;6.26;85.71
34177;BME280;20450;49.074;9.158;2022-11-11T03:57:55;101314.66;;;6.20;84.50
34177;BME280;20450;49.074;9.158;2022-11-11T04:00:41;101315.81;;;6.07;84.24
34177;BME280;20450;49.074;9.158;2022-11-11T04:03:27;101308.81;;;5.87;85.33
34177;BME280;20450;49.074;9.158;2022-11-11T04:06:14;101302.88;;;5.84;86.88
34177;BME280;20450;49.074;9.158;2022-11-11T04:09:00;101307.53;;;5.91;86.89
34177;BME280;20450;49.074;9.158;2022-11-11T04:11:46;101316.81;;;5.97;86.20
34177;BME280;20450;49.074;9.158;2022-11-11T04:14:31;101323.63;;;6.01;86.42
34177;BME280;20450;49.074;9.158;2022-11-11T04:17:17;101326.97;;;6.03;86.36
34177;BME280;20450;49.074;9.158;2022-11-11T04:20:03;101324.88;;;5.97;85.81
34177;BME280;20450;49.074;9.158;2022-11-11T04:22:51;101333.50;;;5.91;85.96
34177;BME280;20450;49.074;9.158;2022-11-11T04:25:36;101327.44;;;5.89;86.49
34177;BME280;20450;49.074;9.158;2022-11-11T04:28:26;101330.69;;;5.83;86.33
34177;BME280;20450;49.074;9.158;2022-11-11T04:31:12;101331.94;;;5.79;86.51
34177;BME280;20450;49.074;9.158;2022-11-11T04:33:58;101335.22;;;5.82;87.10
34177;BME280;20450;49.074;9.158;2022-11-11T04:36:43;101331.53;;;5.83;86.58
34177;BME280;20450;49.074;9.158;2022-11-11T04:39:30;101347.47;;;5.85;86.56
34177;BME280;20450;49.074;9.158;2022-11-11T04:42:16;101350.44;;;5.82;86.80
34177;BME280;20450;49.074;9.158;2022-11-11T04:45:03;101343.50;;;5.79;86.60
34177;BME280;20450;49.074;9.158;2022-11-11T04:47:56;101353.22;;;5.80;86.94
34177;BME280;20450;49.074;9.158;2022-11-11T04:50:44;101356.63;;;5.73;86.45
34177;BME280;20450;49.074;9.158;2022-11-11T04:53:29;101362.00;;;5.73;87.75
34177;BME280;20450;49.074;9.158;2022-11-11T04:56:15;101367.06;;;5.76;88.29
34177;BME280;20450;49.074;9.158;2022-11-11T04:59:01;101361.41;;;5.79;87.60
34177;BME280;20450;49.074;9.158;2022-11-11T05:01:47;101363.97;;;5.80;87.75
34177;BME280;20450;49.074;9.158;2022-11-11T05:04:32;101370.94;;;5.83;87.30
34177;BME280;20450;49.074;9.158;2022-11-11T05:07:21;101376.97;;;5.85;87.37
34177;BME280;20450;49.074;9.158;2022-11-11T05:10:07;101376.28;;;5.83;87.60
34177;BME280;20450;49.074;9.158;2022-11-11T05:12:55;101376.00;;;5.86;87.97
34177;BME280;20450;49.074;9.158;2022-11-11T05:15:41;101364.56;;;5.84;87.53
34177;BME280;20450;49.074;9.158;2022-11-11T05:18:27;101372.72;;;5.73;87.59
34177;BME280;20450;49.074;9.158;2022-11-11T05:21:15;101374.69;;;5.42;88.60
34177;BME280;20450;49.074;9.158;2022-11-11T05:24:04;101371.03;;;5.43;88.92
34177;BME280;20450;49.074;9.158;2022-11-11T05:26:52;101383.03;;;5.49;89.68
34177;BME280;20450;49.074;9.158;2022-11-11T05:29:41;101387.69;;;5.56;89.59
34177;BME280;20450;49.074;9.158;2022-11-11T05:32:27;101393.06;;;5.56;88.76
34177;BME280;20450;49.074;9.158;2022-11-11T05:35:21;101400.25;;;5.56;89.05
34177;BME280;20450;49.074;9.158;2022-11-11T05:38:10;101397.56;;;5.56;88.93
34177;BME280;20450;49.074;9.158;2022-11-11T05:40:56;101409.41;;;5.63;88.97
34177;BME280;20450;49.074;9.158;2022-11-11T05:43:42;101411.53;;;5.69;89.05
34177;BME280;20450;49.074;9.158;2022-11-11T05:46:29;101425.50;;;5.72;88.50
34177;BME280;20450;49.074;9.158;2022-11-11T05:49:16;101423.94;;;5.79;89.48
34177;BME280;20450;49.074;9.158;2022-11-11T05:52:03;101418.63;;;5.89;89.62
34177;BME280;20450;49.074;9.158;2022-11-11T05:54:49;101427.06;;;5.94;88.53
34177;BME280;20450;49.074;9.158;2022-11-11T05:57:35;101430.47;;;5.86;87.47
34177;BME280;20450;49.074;9.158;2022-11-11T06:00:21;101429.16;;;5.81;87.52
34177;BME280;20450;49.074;9.158;2022-11-11T06:03:30;101430.59;;;5.75;87.34
34177;BME280;20450;49.074;9.158;2022-11-11T06:06:15;101437.06;;;5.73;87.10
34177;BME280;20450;49.074;9.158;2022-11-11T06:09:02;101432.25;;;5.67;86.96
34177;BME280;20450;49.074;9.158;2022-11-11T06:11:48;101443.25;;;5.64;86.99
34177;BME280;20450;49.074;9.158;2022-11-11T06:14:33;101437.75;;;5.37;87.37
34177;BME280;20450;49.074;9.158;2022-11-11T06:17:20;101442.03;;;5.09;89.51
34177;BME280;20450;49.074;9.158;2022-11-11T06:20:08;101445.13;;;4.75;89.69
34177;BME280;20450;49.074;9.158;2022-11-11T06:22:54;101441.63;;;4.84;89.80
34177;BME280;20450;49.074;9.158;2022-11-11T06:25:41;101444.28;;;4.74;90.76
34177;BME280;20450;49.074;9.158;2022-11-11T06:28:27;101441.69;;;4.63;90.38
34177;BME280;20450;49.074;9.158;2022-11-11T06:31:18;101436.94;;;4.67;90.82
34177;BME280;20450;49.074;9.158;2022-11-11T06:34:09;101436.59;;;4.60;90.70
34177;BME280;20450;49.074;9.158;2022-11-11T06:37:31;101445.38;;;4.72;90.42
34177;BME280;20450;49.074;9.158;2022-11-11T06:40:18;101450.94;;;4.80;89.96
34177;BME280;20450;49.074;9.158;2022-11-11T06:43:06;101449.44;;;4.96;90.15
34177;BME280;20450;49.074;9.158;2022-11-11T06:45:55;101454.84;;;5.06;89.33
34177;BME280;20450;49.074;9.158;2022-11-11T06:48:52;101447.56;;;5.17;89.11
34177;BME280;20450;49.074;9.158;2022-11-11T06:52:19;101439.66;;;5.25;88.65
34177;BME280;20450;49.074;9.158;2022-11-11T06:55:07;101450.25;;;5.27;88.44
34177;BME280;20450;49.074;9.158;2022-11-11T06:58:00;101442.25;;;5.36;88.75
34177;BME280;20450;49.074;9.158;2022-11-11T07:00:55;101444.66;;;5.39;87.92
34177;BME280;20450;49.074;9.158;2022-11-11T07:04:40;101450.59;;;5.52;88.47
34177;BME280;20450;49.074;9.158;2022-11-11T07:12:39;101453.69;;;5.67;88.93
34177;BME280;20450;49.074;9.158;2022-11-11T07:16:41;101466.75;;;5.90;87.34
34177;BME280;20450;49.074;9.158;2022-11-11T07:19:44;101462.94;;;6.12;86.94
34177;BME280;20450;49.074;9.158;2022-11-11T07:23:37;101453.16;;;6.30;86.78
34177;BME280;20450;49.074;9.158;2022-11-11T07:26:35;101462.19;;;6.48;86.34
34177;BME280;20450;49.074;9.158;2022-11-11T07:29:22;101467.97;;;6.53;86.61
34177;BME280;20450;49.074;9.158;2022-11-11T07:32:11;101457.34;;;6.61;86.58
34177;BME280;20450;49.074;9.158;2022-11-11T07:34:56;101462.72;;;6.61;86.19
34177;BME280;20450;49.074;9.158;2022-11-11T07:37:43;101467.22;;;6.61;85.76
34177;BME280;20450;49.074;9.158;2022-11-11T07:40:31;101465.44;;;6.52;86.31
34177;BME280;20450;49.074;9.158;2022-11-11T07:43:19;101470.66;;;6.53;87.43
34177;BME280;20450;49.074;9.158;2022-11-11T07:46:06;101472.88;;;6.67;87.21
34177;BME280;20450;49.074;9.158;2022-11-11T07:48:51;101474.50;;;6.87;87.08
34177;BME280;20450;49.074;9.158;2022-11-11T07:51:37;101472.13;;;7.11;86.93
34177;BME280;20450;49.074;9.158;2022-11-11T07:54:26;101467.28;;;7.24;85.36
34177;BME280;20450;49.074;9.158;2022-11-11T07:57:12;101467.38;;;7.32;85.95
34177;BME280;20450;49.074;9.158;2022-11-11T07:59:57;101462.69;;;7.61;84.27
34177;BME280;20450;49.074;9.158;2022-11-11T08:02:47;101460.41;;;7.84;82.96
34177;BME280;20450;49.074;9.158;2022-11-11T08:05:33;101463.59;;;8.05;83.65
34177;BME280;20450;49.074;9.158;2022-11-11T08:08:19;101461.22;;;8.20;80.95
34177;BME280;20450;49.074;9.158;2022-11-11T08:11:05;101473.00;;;8.36;80.39
34177;BME280;20450;49.074;9.158;2022-11-11T08:13:50;101464.72;;;8.55;79.44
34177;BME280;20450;49.074;9.158;2022-11-11T08:16:36;101475.84;;;8.78;78.57
34177;BME280;20450;49.074;9.158;2022-11-11T08:19:23;101474.88;;;9.20;78.84
34177;BME280;20450;49.074;9.158;2022-11-11T08:22:09;101481.31;;;9.85;76.42
34177;BME280;20450;49.074;9.158;2022-11-11T08:24:55;101481.91;;;10.45;73.22
34177;BME280;20450;49.074;9.158;2022-11-11T08:27:55;101482.66;;;11.09;70.85
34177;BME280;20450;49.074;9.158;2022-11-11T08:30:42;101490.31;;;11.83;69.13
34177;BME280;20450;49.074;9.158;2022-11-11T08:33:29;101489.41;;;12.58;65.13
34177;BME280;20450;49.074;9.158;2022-11-11T08:36:21;101480.84;;;13.06;62.22
34177;BME280;20450;49.074;9.158;2022-11-11T08:39:07;101476.38;;;13.63;60.22
34177;BME280;20450;49.074;9.158;2022-11-11T08:41:53;101477.44;;;12.90;63.30
34177;BME280;20450;49.074;9.158;2022-11-11T08:44:38;101472.59;;;13.00;63.29
34177;BME280;20450;49.074;9.158;2022-11-11T08:47:24;101471.97;;;13.77;58.85
34177;BME280;20450;49.074;9.158;2022-11-11T08:50:10;101462.69;;;14.49;58.67
34177;BME280;20450;49.074;9.158;2022-11-11T08:52:59;101465.31;;;15.59;55.18
34177;BME280;20450;49.074;9.158;2022-11-11T08:55:46;101472.91;;;16.50;52.72
34177;BME280;20450;49.074;9.158;2022-11-11T08:58:32;101462.56;;;17.17;50.95
34177;BME280;20450;49.074;9.158;2022-11-11T09:01:18;101470.75;;;17.17;50.77
34177;BME280;20450;49.074;9.158;2022-11-11T09:04:04;101467.75;;;17.38;48.97
34177;BME280;20450;49.074;9.158;2022-11-11T09:07:11;101467.34;;;17.41;49.28
34177;BME280;20450;49.074;9.158;2022-11-11T09:09:59;101456.19;;;18.62;47.75
34177;BME280;20450;49.074;9.158;2022-11-11T09:12:46;101454.97;;;18.58;46.26
34177;BME280;20450;49.074;9.158;2022-11-11T09:15:32;101453.16;;;16.87;50.04
34177;BME280;20450;49.074;9.158;2022-11-11T09:18:18;101447.97;;;18.00;48.82
34177;BME280;20450;49.074;9.158;2022-11-11T09:21:04;101435.50;;;18.42;47.06
34177;BME280;20450;49.074;9.158;2022-11-11T09:23:51;101443.94;;;18.65;46.97
34177;BME280;20450;49.074;9.158;2022-11-11T09:26:38;101433.47;;;18.80;46.45
34177;BME280;20450;49.074;9.158;2022-11-11T09:29:24;101435.66;;;19.14;45.90
34177;BME280;20450;49.074;9.158;2022-11-11T09:32:09;101437.66;;;17.58;49.48
34177;BME280;20450;49.074;9.158;2022-11-11T09:34:55;101435.66;;;18.16;48.27
34177;BME280;20450;49.074;9.158;2022-11-11T09:37:40;101427.84;;;18.50;47.54
34177;BME280;20450;49.074;9.158;2022-11-11T09:40:31;101436.28;;;18.73;47.23
34177;BME280;20450;49.074;9.158;2022-11-11T09:43:35;101441.06;;;17.47;49.52
34177;BME280;20450;49.074;9.158;2022-11-11T09:46:36;101434.91;;;16.94;51.50
34177;BME280;20450;49.074;9.158;2022-11-11T09:49:40;101436.16;;;17.62;50.54
34177;BME280;20450;49.074;9.158;2022-11-11T09:52:40;101439.75;;;16.60;52.54
34177;BME280;20450;49.074;9.158;2022-11-11T09:55:32;101437.75;;;17.25;51.30
34177;BME280;20450;49.074;9.158;2022-11-11T09:58:25;101437.88;;;17.56;50.38
34177;BME280;20450;49.074;9.158;2022-11-11T10:01:18;101442.03;;;17.72;49.72
34177;BME280;20450;49.074;9.158;2022-11-11T10:04:26;101447.53;;;17.66;50.13
34177;BME280;20450;49.074;9.158;2022-11-11T10:11:15;101444.78;;;18.65;47.75
34177;BME280;20450;49.074;9.158;2022-11-11T10:14:06;101445.63;;;19.63;45.49
34177;BME280;20450;49.074;9.158;2022-11-11T10:16:57;101444.94;;;20.67;42.47
34177;BME280;20450;49.074;9.158;2022-11-11T10:19:59;101450.44;;;20.67;42.80
34177;BME280;20450;49.074;9.158;2022-11-11T10:22:54;101448.66;;;20.73;42.94
34177;BME280;20450;49.074;9.158;2022-11-11T10:25:52;101439.97;;;21.10;41.22
34177;BME280;20450;49.074;9.158;2022-11-11T10:28:42;101440.69;;;21.69;40.52
34177;BME280;20450;49.074;9.158;2022-11-11T10:31:30;101447.75;;;21.02;42.74
34177;BME280;20450;49.074;9.158;2022-11-11T10:34:16;101439.38;;;19.01;47.62
34177;BME280;20450;49.074;9.158;2022-11-11T10:37:16;101438.91;;;17.62;50.97
34177;BME280;20450;49.074;9.158;2022-11-11T10:40:14;101436.00;;;18.81;48.69
34177;BME280;20450;49.074;9.158;2022-11-11T10:43:03;101426.94;;;19.41;46.68
34177;BME280;20450;49.074;9.158;2022-11-11T10:45:53;101434.66;;;19.81;46.24
34177;BME280;20450;49.074;9.158;2022-11-11T10:48:52;101431.63;;;19.71;47.34
34177;BME280;20450;49.074;9.158;2022-11-11T10:51:46;101418.38;;;19.13;47.91
34177;BME280;20450;49.074;9.158;2022-11-11T10:54:40;101418.06;;;19.21;47.95
34177;BME280;20450;49.074;9.158;2022-11-11T10:57:36;101417.38;;;19.80;46.96
34177;BME280;20450;49.074;9.158;2022-11-11T11:00:24;101416.63;;;20.03;46.25
34177;BME280;20450;49.074;9.158;2022-11-11T11:03:13;101403.22;;;19.95;45.86
34177;BME280;20450;49.074;9.158;2022-11-11T11:06:11;101399.66;;;19.46;47.04
34177;BME280;20450;49.074;9.158;2022-11-11T11:09:07;101405.97;;;18.93;49.05
34177;BME280;20450;49.074;9.158;2022-11-11T11:12:00;101405.38;;;19.09;48.60
34177;BME280;20450;49.074;9.158;2022-11-11T11:14:54;101407.75;;;19.89;46.72
34177;BME280;20450;49.074;9.158;2022-11-11T11:17:52;101381.41;;;20.64;44.29
34177;BME280;20450;49.074;9.158;2022-11-11T11:20:54;101389.91;;;20.74;43.87
34177;BME280;20450;49.074;9.158;2022-11-11T11:23:44;101384.66;;;20.72;44.50
34177;BME280;20450;49.074;9.158;2022-11-11T11:26:42;101400.38;;;19.72;46.26
34177;BME280;20450;49.074;9.158;2022-11-11T11:29:31;101390.88;;;20.68;44.45
34177;BME280;20450;49.074;9.158;2022-11-11T11:32:20;101384.19;;;20.87;44.35
34177;BME280;20450;49.074;9.158;2022-11-11T11:35:28;101399.81;;;20.11;45.29
34177;BME280;20450;49.074;9.158;2022-11-11T11:38:17;101392.53;;;20.05;45.95
34177;BME280;20450;49.074;9.158;2022-11-11T11:41:04;101380.97;;;21.01;43.74
34177;BME280;20450;49.074;9.158;2022-11-11T11:43:50;101386.63;;;22.02;41.57
34177;BME280;20450;49.074;9.158;2022-11-11T11:46:38;101394.34;;;22.33;40.29
34177;BME280;20450;49.074;9.158;2022-11-11T11:49:39;101402.88;;;22.65;39.71
34177;BME280;20450;49.074;9.158;2022-11-11T11:52:43;101399.31;;;22.64;40.11
34177;BME280;20450;49.074;9.158;2022-11-11T11:55:42;101397.84;;;22.12;41.46
34177;BME280;20450;49.074;9.158;2022-11-11T11:58:39;101394.94;;;21.91;42.12
34177;BME280;20450;49.074;9.158;2022-11-11T12:01:46;101395.59;;;21.70;42.68
34177;BME280;20450;49.074;9.158;2022-11-11T12:05:04;101390.75;;;20.63;45.00
34177;BME280;20450;49.074;9.158;2022-11-11T12:08:07;101399.25;;;19.61;47.48
34177;BME280;20450;49.074;9.158;2022-11-11T12:11:10;101388.00;;;18.79;49.63
34177;BME280;20450;49.074;9.158;2022-11-11T12:14:22;101390.66;;;18.43;51.50
34177;BME280;20450;49.074;9.158;2022-11-11T12:17:29;101383.34;;;18.37;51.74
34177;BME280;20450;49.074;9.158;2022-11-11T12:20:25;101380.28;;;18.20;52.49
34177;BME280;20450;49.074;9.158;2022-11-11T12:23:33;101373.91;;;17.71;53.87
34177;BME280;20450;49.074;9.158;2022-11-11T12:26:34;101384.31;;;17.55;54.26
34177;BME280;20450;49.074;9.158;2022-11-11T12:29:38;101373.19;;;17.44;54.92
34177;BME280;20450;49.074;9.158;2022-11-11T12:32:47;101377.19;;;17.35;55.34
34177;BME280;20450;49.074;9.158;2022-11-11T12:35:56;101377.38;;;16.96;56.72
34177;BME280;20450;49.074;9.158;2022-11-11T12:38:56;101381.56;;;16.92;57.33
34177;BME280;20450;49.074;9.158;2022-11-11T12:41:57;101373.56;;;16.90;57.24
34177;BME280;20450;49.074;9.158;2022-11-11T12:45:03;101378.25;;;16.70;58.39
34177;BME280;20450;49.074;9.158;2022-11-11T12:48:05;101368.59;;;16.55;58.55
34177;BME280;20450;49.074;9.158;2022-11-11T12:51:12;101375.31;;;16.39;58.86
34177;BME280;20450;49.074;9.158;2022-11-11T12:54:16;101367.16;;;16.26;59.32
34177;BME280;20450;49.074;9.158;2022-11-11T12:57:15;101363.16;;;16.09;60.44
34177;BME280;20450;49.074;9.158;2022-11-11T13:00:16;101359.78;;;16.01;60.16
34177;BME280;20450;49.074;9.158;2022-11-11T13:03:24;101361.22;;;15.84;61.10
34177;BME280;20450;49.074;9.158;2022-11-11T13:06:36;101361.22;;;15.70;61.27
34177;BME280;20450;49.074;9.158;2022-11-11T13:10:00;101358.91;;;15.67;61.61
34177;BME280;20450;49.074;9.158;2022-11-11T13:13:01;101357.44;;;15.65;62.30
34177;BME280;20450;49.074;9.158;2022-11-11T13:16:02;101356.66;;;15.30;62.77
34177;BME280;20450;49.074;9.158;2022-11-11T13:18:53;101354.63;;;14.98;64.28
34177;BME280;20450;49.074;9.158;2022-11-11T13:21:48;101359.66;;;15.01;64.60
34177;BME280;20450;49.074;9.158;2022-11-11T13:24:37;101356.53;;;15.04;64.51
34177;BME280;20450;49.074;9.158;2022-11-11T13:27:30;101351.91;;;14.98;65.20
34177;BME280;20450;49.074;9.158;2022-11-11T13:30:35;101352.09;;;14.90;65.53
34177;BME280;20450;49.074;9.158;2022-11-11T13:33:38;101350.31;;;14.76;65.97
34177;BME280;20450;49.074;9.158;2022-11-11T13:36:33;101340.22;;;14.64;66.17
34177;BME280;20450;49.074;9.158;2022-11-11T13:39:28;101352.97;;;14.63;66.16
34177;BME280;20450;49.074;9.158;2022-11-11T13:42:25;101350.59;;;14.54;65.82
34177;BME280;20450;49.074;9.158;2022-11-11T13:45:28;101349.63;;;14.34;66.70
34177;BME280;20450;49.074;9.158;2022-11-11T13:48:26;101349.78;;;14.26;67.33
34177;BME280;20450;49.074;9.158;2022-11-11T13:51:29;101359.47;;;14.14;67.63
34177;BME280;20450;49.074;9.158;2022-11-11T13:54:25;101353.69;;;13.96;68.88
34177;BME280;20450;49.074;9.158;2022-11-11T13:57:19;101345.06;;;13.92;68.97
34177;BME280;20450;49.074;9.158;2022-11-11T14:00:24;101346.13;;;13.91;69.44
34177;BME280;20450;49.074;9.158;2022-11-11T14:03:31;101356.34;;;13.89;69.08
34177;BME280;20450;49.074;9.158;2022-11-11T14:06:51;101361.88;;;13.81;69.85
34177;BME280;20450;49.074;9.158;2022-11-11T14:09:56;101359.16;;;13.81;69.52
34177;BME280;20450;49.074;9.158;2022-11-11T14:12:45;101356.31;;;13.68;70.27
34177;BME280;20450;49.074;9.158;2022-11-11T14:15:41;101357.09;;;13.62;70.49
34177;BME280;20450;49.074;9.158;2022-11-11T14:18:47;101369.97;;;13.53;71.02
34177;BME280;20450;49.074;9.158;2022-11-11T14:21:48;101362.00;;;13.52;71.45
34177;BME280;20450;49.074;9.158;2022-11-11T14:24:45;101356.97;;;13.49;72.03
34177;BME280;20450;49.074;9.158;2022-11-11T14:27:33;101373.25;;;13.49;71.79
34177;BME280;20450;49.074;9.158;2022-11-11T14:30:34;101364.81;;;13.44;72.48
34177;BME280;20450;49.074;9.158;2022-11-11T14:33:39;101369.63;;;13.42;72.31
34177;BME280;20450;49.074;9.158;2022-11-11T14:36:41;101373.34;;;13.41;72.59
34177;BME280;20450;49.074;9.158;2022-11-11T14:39:36;101369.72;;;13.34;72.93
34177;BME280;20450;49.074;9.158;2022-11-11T14:42:47;101363.97;;;13.22;73.25
34177;BME280;20450;49.074;9.158;2022-11-11T14:46:00;101362.00;;;13.16;73.75
34177;BME280;20450;49.074;9.158;2022-11-11T14:48:55;101370.72;;;13.12;73.95
34177;BME280;20450;49.074;9.158;2022-11-11T14:51:49;101360.25;;;13.09;74.35
34177;BME280;20450;49.074;9.158;2022-11-11T14:54:55;101367.34;;;13.10;74.06
34177;BME280;20450;49.074;9.158;2022-11-11T14:57:49;101363.53;;;13.04;73.82
34177;BME280;20450;49.074;9.158;2022-11-11T15:00:46;101368.00;;;12.97;73.97
34177;BME280;20450;49.074;9.158;2022-11-11T15:03:37;101368.56;;;12.93;74.28
34177;BME280;20450;49.074;9.158;2022-11-11T15:06:31;101368.09;;;12.89;75.38
34177;BME280;20450;49.074;9.158;2022-11-11T15:09:39;101366.22;;;12.90;75.17
34177;BME280;20450;49.074;9.158;2022-11-11T15:16:54;101359.59;;;12.78;74.82
34177;BME280;20450;49.074;9.158;2022-11-11T15:20:20;101354.25;;;12.70;75.48
34177;BME280;20450;49.074;9.158;2022-11-11T15:23:22;101353.69;;;12.60;75.97